Time;durP1;ratioP1;P1;durP2;ratioP2;P2;SDS_P1;SDS_P2;PMS_P1;PMS_P2;Temp;Humidity;BMP_temperature;BMP_pressure;BME280_temperature;BME280_humidity;BME280_pressure;Samples;Min_cycle;Max_cycle;Signal;HPM_P1;HPM_P2
2024/01/04 00:00:25;;;;;;;;;;;8.00;99.90;;;;;;5034456;28;20573;-90
2024/01/04 00:02:51;;;;;;;;;;;8.10;99.90;;;;;;5036227;28;20003;-91
2024/01/04 00:05:16;;;;;;;;;;;8.00;99.90;;;;;;5034303;28;19930;-91
2024/01/04 00:07:42;;;;;;;;;;;8.00;99.90;;;;;;5039333;28;19931;-91
2024/01/04 00:10:08;;;;;;;;;;;8.00;99.90;;;;;;5037568;28;19931;-92
2024/01/04 00:12:34;;;;;;;;;;;8.00;99.90;;;;;;5040334;28;20403;-92
2024/01/04 00:15:02;;;;;;;;;;;8.00;99.90;;;;;;5042878;28;20427;-92
2024/01/04 00:17:28;;;;;;;;;;;8.00;99.90;;;;;;5039155;28;19921;-92
2024/01/04 00:19:53;;;;;;;;;;;8.10;99.90;;;;;;5042899;28;19927;-91
2024/01/04 00:22:19;;;;;;;;;;;8.10;99.90;;;;;;5045937;28;19936;-90
2024/01/04 00:24:44;;;;;;;;;;;8.20;99.90;;;;;;5049954;28;20305;-92
2024/01/04 00:27:10;;;;;;;;;;;8.10;99.90;;;;;;5040978;28;19936;-90
2024/01/04 00:29:35;;;;;;;;;;;8.10;99.90;;;;;;5040346;28;19936;-90
2024/01/04 00:32:01;;;;;;;;;;;8.10;99.90;;;;;;5039518;28;20063;-92
2024/01/04 00:34:27;;;;;;;;;;;8.10;99.90;;;;;;5038711;28;19917;-91
2024/01/04 00:36:52;;;;;;;;;;;8.20;99.90;;;;;;5035168;28;20120;-89
2024/01/04 00:39:18;;;;;;;;;;;8.20;99.90;;;;;;5062399;28;19976;-91
2024/01/04 00:41:43;;;;;;;;;;;8.20;99.90;;;;;;5044240;28;19932;-91
2024/01/04 00:44:09;;;;;;;;;;;8.20;99.90;;;;;;5038641;28;19931;-90
2024/01/04 00:46:34;;;;;;;;;;;8.30;99.90;;;;;;5044645;28;19921;-91
2024/01/04 00:49:01;;;;;;;;;;;8.30;99.90;;;;;;5023038;28;20397;-90
2024/01/04 00:51:27;;;;;;;;;;;8.40;99.90;;;;;;5048378;28;19929;-90
2024/01/04 00:53:52;;;;;;;;;;;8.40;99.90;;;;;;5039918;28;20479;-93
2024/01/04 00:56:18;;;;;;;;;;;8.30;99.90;;;;;;5039659;28;20026;-90
2024/01/04 00:58:43;;;;;;;;;;;8.20;99.90;;;;;;5042748;28;19936;-92
2024/01/04 01:01:09;;;;;;;;;;;8.20;99.90;;;;;;5036290;28;19909;-91
2024/01/04 01:03:35;;;;;;;;;;;8.10;99.90;;;;;;5037067;28;20019;-90
2024/01/04 01:06:00;;;;;;;;;;;8.10;99.90;;;;;;5036495;28;19918;-91
2024/01/04 01:08:26;;;;;;;;;;;8.10;99.90;;;;;;5043327;28;20353;-92
2024/01/04 01:10:51;;;;;;;;;;;8.10;99.90;;;;;;5035356;28;19944;-90
2024/01/04 01:13:20;;;;;;;;;;;8.10;99.90;;;;;;5040264;28;20065;-91
2024/01/04 01:15:47;;;;;;;;;;;8.10;99.90;;;;;;5037517;28;19944;-91
2024/01/04 01:18:12;;;;;;;;;;;8.10;99.90;;;;;;5039007;28;19973;-89
2024/01/04 01:20:38;;;;;;;;;;;8.20;99.90;;;;;;5039212;28;19926;-91
2024/01/04 01:23:04;;;;;;;;;;;8.20;99.90;;;;;;5040505;28;19928;-90
2024/01/04 01:25:30;;;;;;;;;;;8.20;99.90;;;;;;5036002;28;19955;-91
2024/01/04 01:27:55;;;;;;;;;;;8.20;99.90;;;;;;5040210;28;19923;-91
2024/01/04 01:30:21;;;;;;;;;;;8.30;99.90;;;;;;5034859;28;19920;-90
2024/01/04 01:32:46;;;;;;;;;;;8.20;99.90;;;;;;5037231;28;20035;-91
2024/01/04 01:35:13;;;;;;;;;;;8.20;99.90;;;;;;5031173;28;19991;-92
2024/01/04 01:37:38;;;;;;;;;;;8.20;99.90;;;;;;5031041;28;19916;-90
2024/01/04 01:40:05;;;;;;;;;;;8.20;99.90;;;;;;5031320;28;21449;-92
2024/01/04 01:42:30;;;;;;;;;;;8.10;99.90;;;;;;5032834;28;20357;-90
2024/01/04 01:44:56;;;;;;;;;;;8.10;99.90;;;;;;5037607;28;19920;-91
2024/01/04 01:47:24;;;;;;;;;;;8.20;99.90;;;;;;5033641;28;19933;-91
2024/01/04 01:49:50;;;;;;;;;;;8.20;99.90;;;;;;5034270;28;20932;-92
2024/01/04 01:52:16;;;;;;;;;;;8.10;99.90;;;;;;5035881;28;19937;-90
2024/01/04 01:54:42;;;;;;;;;;;8.10;99.90;;;;;;5031124;28;19956;-92
2024/01/04 01:57:07;;;;;;;;;;;8.00;99.90;;;;;;5029549;28;19975;-92
2024/01/04 01:59:33;;;;;;;;;;;8.00;99.90;;;;;;5036704;28;19967;-92
2024/01/04 02:01:59;;;;;;;;;;;8.10;99.90;;;;;;5035617;28;19923;-90
2024/01/04 02:04:24;;;;;;;;;;;8.10;99.90;;;;;;5030117;28;19936;-89
2024/01/04 02:06:50;;;;;;;;;;;8.20;99.90;;;;;;5035981;28;19922;-90
2024/01/04 02:09:15;;;;;;;;;;;8.20;99.90;;;;;;5039099;28;20019;-91
2024/01/04 02:11:50;;;;;;;;;;;8.20;99.90;;;;;;5034266;28;20788;-89
2024/01/04 02:14:16;;;;;;;;;;;8.20;99.90;;;;;;5038463;28;19982;-91
2024/01/04 02:16:43;;;;;;;;;;;8.10;99.90;;;;;;5036334;28;19956;-94
2024/01/04 02:19:09;;;;;;;;;;;8.00;99.90;;;;;;5034424;28;19930;-92
2024/01/04 02:21:36;;;;;;;;;;;8.00;99.90;;;;;;5040833;28;19963;-90
2024/01/04 02:24:01;;;;;;;;;;;8.00;99.90;;;;;;5034534;28;19944;-90
2024/01/04 02:26:27;;;;;;;;;;;7.90;99.90;;;;;;5031760;28;19931;-91
2024/01/04 02:28:53;;;;;;;;;;;7.90;99.90;;;;;;5033604;28;19937;-91
2024/01/04 02:31:18;;;;;;;;;;;7.90;99.90;;;;;;5034735;28;20032;-90
2024/01/04 02:33:45;;;;;;;;;;;7.90;99.90;;;;;;5037132;28;19935;-90
2024/01/04 02:36:11;;;;;;;;;;;7.90;99.90;;;;;;5036034;28;19921;-89
2024/01/04 02:38:36;;;;;;;;;;;7.80;99.90;;;;;;5033796;28;19928;-90
2024/01/04 02:41:02;;;;;;;;;;;7.80;99.90;;;;;;5048666;28;20286;-91
2024/01/04 02:43:27;;;;;;;;;;;7.70;99.90;;;;;;5051904;28;19936;-90
2024/01/04 02:45:53;;;;;;;;;;;7.70;99.90;;;;;;5052381;28;19946;-91
2024/01/04 02:48:18;;;;;;;;;;;7.60;99.90;;;;;;5035122;28;19927;-93
2024/01/04 02:50:44;;;;;;;;;;;7.70;99.90;;;;;;5035993;28;20455;-91
2024/01/04 02:53:09;;;;;;;;;;;7.60;99.90;;;;;;5036059;28;20285;-91
2024/01/04 02:55:35;;;;;;;;;;;7.70;99.90;;;;;;5030991;28;20293;-92
2024/01/04 02:58:00;;;;;;;;;;;7.60;99.90;;;;;;5036554;28;20464;-89
2024/01/04 03:00:27;;;;;;;;;;;7.70;99.90;;;;;;5034450;28;19924;-93
2024/01/04 03:02:52;;;;;;;;;;;7.70;99.90;;;;;;5031397;28;20400;-92
2024/01/04 03:05:18;;;;;;;;;;;7.70;99.90;;;;;;5033718;28;19934;-90
2024/01/04 03:07:44;;;;;;;;;;;7.80;99.90;;;;;;5031860;28;19930;-91
2024/01/04 03:10:09;;;;;;;;;;;7.80;99.90;;;;;;5033112;28;19969;-92
2024/01/04 03:12:36;;;;;;;;;;;7.70;99.90;;;;;;5036216;28;19988;-91
2024/01/04 03:15:02;;;;;;;;;;;7.70;99.90;;;;;;5035418;28;19951;-91
2024/01/04 03:17:27;;;;;;;;;;;7.70;99.90;;;;;;5038515;28;20371;-90
2024/01/04 03:19:53;;;;;;;;;;;7.70;99.90;;;;;;5042075;28;19913;-92
2024/01/04 03:22:18;;;;;;;;;;;7.60;99.90;;;;;;5036374;28;20040;-90
2024/01/04 03:24:44;;;;;;;;;;;7.50;99.90;;;;;;5036230;28;19975;-89
2024/01/04 03:27:12;;;;;;;;;;;7.50;99.90;;;;;;5034741;28;19928;-91
2024/01/04 03:29:37;;;;;;;;;;;7.40;99.90;;;;;;5032287;28;20379;-91
2024/01/04 03:32:05;;;;;;;;;;;7.40;99.90;;;;;;5033966;28;19960;-92
2024/01/04 03:34:30;;;;;;;;;;;7.30;99.90;;;;;;5038749;28;20352;-92
2024/01/04 03:36:56;;;;;;;;;;;7.30;99.90;;;;;;5036224;28;19969;-90
2024/01/04 03:39:21;;;;;;;;;;;7.30;99.90;;;;;;5034792;28;20100;-91
2024/01/04 03:41:47;;;;;;;;;;;7.30;99.90;;;;;;5035142;28;19973;-90
2024/01/04 03:44:12;;;;;;;;;;;7.20;99.90;;;;;;5035273;28;19931;-90
2024/01/04 03:46:38;;;;;;;;;;;7.20;99.90;;;;;;5034317;28;19949;-92
2024/01/04 03:49:03;;;;;;;;;;;7.20;99.90;;;;;;5040371;28;19927;-91
2024/01/04 03:51:29;;;;;;;;;;;7.20;99.90;;;;;;5036603;28;19936;-90
2024/01/04 03:53:56;;;;;;;;;;;7.20;99.90;;;;;;5040336;28;19990;-93
2024/01/04 03:56:21;;;;;;;;;;;7.20;99.90;;;;;;5035467;28;20006;-90
2024/01/04 03:58:47;;;;;;;;;;;7.10;99.90;;;;;;5041326;28;20368;-91
2024/01/04 04:01:12;;;;;;;;;;;7.10;99.90;;;;;;5040392;28;19996;-90
2024/01/04 04:03:38;;;;;;;;;;;7.00;99.90;;;;;;5054662;28;19940;-90
2024/01/04 04:06:04;;;;;;;;;;;7.00;99.90;;;;;;5050472;28;19933;-92
2024/01/04 04:08:29;;;;;;;;;;;6.90;99.90;;;;;;5037175;28;19958;-92
2024/01/04 04:10:55;;;;;;;;;;;6.90;99.90;;;;;;5038345;28;20515;-90
2024/01/04 04:13:21;;;;;;;;;;;6.90;99.90;;;;;;5038706;28;19950;-89
2024/01/04 04:15:46;;;;;;;;;;;6.90;99.90;;;;;;5045762;28;20392;-91
2024/01/04 04:18:12;;;;;;;;;;;7.00;99.90;;;;;;5041800;28;19934;-91
2024/01/04 04:20:37;;;;;;;;;;;6.90;99.90;;;;;;5040631;28;19931;-91
2024/01/04 04:23:03;;;;;;;;;;;6.90;99.90;;;;;;5038035;28;19938;-90
2024/01/04 04:25:28;;;;;;;;;;;6.90;99.90;;;;;;5035022;28;20696;-91
2024/01/04 04:27:54;;;;;;;;;;;6.90;99.90;;;;;;5039220;28;19927;-93
2024/01/04 04:30:20;;;;;;;;;;;6.80;99.90;;;;;;5041115;28;19967;-91
2024/01/04 04:32:46;;;;;;;;;;;6.80;99.90;;;;;;5037728;28;20299;-90
2024/01/04 04:35:12;;;;;;;;;;;6.80;99.90;;;;;;5035032;28;19937;-91
2024/01/04 04:37:37;;;;;;;;;;;6.80;99.90;;;;;;5042517;28;19932;-90
2024/01/04 04:40:03;;;;;;;;;;;6.70;99.90;;;;;;5037300;28;20020;-89
2024/01/04 04:42:29;;;;;;;;;;;6.70;99.90;;;;;;5039640;28;20021;-90
2024/01/04 04:44:55;;;;;;;;;;;6.70;99.90;;;;;;5034721;28;19929;-91
2024/01/04 04:47:20;;;;;;;;;;;6.70;99.90;;;;;;5038770;28;19933;-90
2024/01/04 04:49:46;;;;;;;;;;;6.60;99.90;;;;;;5044657;28;19988;-91
2024/01/04 04:52:11;;;;;;;;;;;6.70;99.90;;;;;;5036235;28;20026;-91
2024/01/04 04:54:37;;;;;;;;;;;6.60;99.90;;;;;;5036180;28;19993;-91
2024/01/04 04:57:04;;;;;;;;;;;6.60;99.90;;;;;;5035472;28;20343;-90
2024/01/04 04:59:30;;;;;;;;;;;6.50;99.90;;;;;;5041048;28;19932;-91
2024/01/04 05:01:55;;;;;;;;;;;6.50;99.90;;;;;;5033674;28;21297;-92
2024/01/04 05:04:21;;;;;;;;;;;6.50;99.90;;;;;;5038078;28;19935;-91
2024/01/04 05:06:47;;;;;;;;;;;6.60;99.90;;;;;;5034126;28;20530;-90
2024/01/04 05:09:12;;;;;;;;;;;6.50;99.90;;;;;;5033625;28;19929;-91
2024/01/04 05:11:38;;;;;;;;;;;6.50;99.90;;;;;;5041820;28;21271;-90
2024/01/04 05:14:03;;;;;;;;;;;6.40;99.90;;;;;;5039477;28;19950;-92
2024/01/04 05:16:29;;;;;;;;;;;6.30;99.90;;;;;;5037678;28;19967;-91
2024/01/04 05:18:55;;;;;;;;;;;6.30;99.90;;;;;;5040762;28;20057;-90
2024/01/04 05:21:20;;;;;;;;;;;6.30;99.90;;;;;;5041297;28;20029;-90
2024/01/04 05:23:46;;;;;;;;;;;6.30;99.90;;;;;;5036855;28;19949;-92
2024/01/04 05:26:20;;;;;;;;;;;6.30;99.90;;;;;;5035051;28;20417;-92
2024/01/04 05:28:45;;;;;;;;;;;6.30;99.90;;;;;;5034162;28;20534;-90
2024/01/04 05:31:11;;;;;;;;;;;6.40;99.90;;;;;;5038395;28;19975;-93
2024/01/04 05:33:36;;;;;;;;;;;6.40;99.90;;;;;;5038057;28;20058;-91
2024/01/04 05:36:02;;;;;;;;;;;6.30;99.90;;;;;;5036856;28;20041;-93
2024/01/04 05:38:27;;;;;;;;;;;6.30;99.90;;;;;;5040840;28;19929;-92
2024/01/04 05:40:53;;;;;;;;;;;6.20;99.90;;;;;;5040315;28;20024;-90
2024/01/04 05:43:18;;;;;;;;;;;6.10;99.90;;;;;;5036465;28;19920;-92
2024/01/04 05:45:44;;;;;;;;;;;6.10;99.90;;;;;;5039816;28;19987;-90
2024/01/04 05:48:10;;;;;;;;;;;6.10;99.90;;;;;;5037928;28;20450;-93
2024/01/04 05:50:35;;;;;;;;;;;6.10;99.90;;;;;;5049972;28;19989;-91
2024/01/04 05:53:00;;;;;;;;;;;6.00;99.90;;;;;;5049771;28;19947;-92
2024/01/04 05:55:27;;;;;;;;;;;6.00;99.90;;;;;;5031981;28;19952;-92
2024/01/04 05:57:52;;;;;;;;;;;6.00;99.90;;;;;;5036727;28;19928;-91
2024/01/04 06:00:18;;;;;;;;;;;6.00;99.90;;;;;;5038148;28;19937;-94
2024/01/04 06:02:44;;;;;;;;;;;5.90;99.90;;;;;;5039207;28;19935;-93
2024/01/04 06:05:09;;;;;;;;;;;5.90;99.90;;;;;;5038937;28;19935;-91
2024/01/04 06:07:35;;;;;;;;;;;5.90;99.90;;;;;;5052861;28;19935;-93
2024/01/04 06:10:01;;;;;;;;;;;5.90;99.90;;;;;;5038005;28;19972;-91
2024/01/04 06:12:26;;;;;;;;;;;5.80;99.90;;;;;;5046288;28;19957;-93
2024/01/04 06:14:52;;;;;;;;;;;5.80;99.90;;;;;;5061862;28;19950;-92
2024/01/04 06:17:18;;;;;;;;;;;5.80;99.90;;;;;;5043577;28;20026;-89
2024/01/04 06:19:44;;;;;;;;;;;5.80;99.90;;;;;;5043635;28;20026;-93
2024/01/04 06:22:10;;;;;;;;;;;5.80;99.90;;;;;;5043192;28;20028;-89
2024/01/04 06:24:35;;;;;;;;;;;5.80;99.90;;;;;;5032174;28;20029;-92
2024/01/04 06:27:01;;;;;;;;;;;5.80;99.90;;;;;;5029258;28;20011;-91
2024/01/04 06:29:26;;;;;;;;;;;5.80;99.90;;;;;;5031594;28;20455;-90
2024/01/04 06:31:52;;;;;;;;;;;5.80;99.90;;;;;;5035768;28;20285;-89
2024/01/04 06:34:18;;;;;;;;;;;5.80;99.90;;;;;;5037959;28;19951;-88
2024/01/04 06:36:43;;;;;;;;;;;5.80;99.90;;;;;;5027619;28;19936;-90
2024/01/04 06:39:09;;;;;;;;;;;5.80;99.90;;;;;;5029403;28;21572;-90
2024/01/04 06:41:35;;;;;;;;;;;5.80;99.90;;;;;;5033812;28;19935;-88
2024/01/04 06:44:01;;;;;;;;;;;5.80;99.90;;;;;;5030128;28;19930;-89
2024/01/04 06:46:26;;;;;;;;;;;5.80;99.90;;;;;;5035757;28;19924;-89
2024/01/04 06:48:52;;;;;;;;;;;5.70;99.90;;;;;;5037374;28;19931;-89
2024/01/04 06:51:17;;;;;;;;;;;5.70;99.90;;;;;;5037593;28;19921;-88
2024/01/04 06:53:43;;;;;;;;;;;5.70;99.90;;;;;;5032787;28;19955;-89
2024/01/04 06:56:09;;;;;;;;;;;5.70;99.90;;;;;;5031509;28;19999;-89
2024/01/04 06:58:35;;;;;;;;;;;5.60;99.90;;;;;;5032455;28;20425;-88
2024/01/04 07:01:01;;;;;;;;;;;5.70;99.90;;;;;;5030605;28;19924;-88
2024/01/04 07:03:26;;;;;;;;;;;5.60;99.90;;;;;;5034937;28;19983;-89
2024/01/04 07:05:52;;;;;;;;;;;5.70;99.90;;;;;;5033936;28;19943;-88
2024/01/04 07:08:17;;;;;;;;;;;5.70;99.90;;;;;;5028054;28;20009;-89
2024/01/04 07:10:43;;;;;;;;;;;5.80;99.90;;;;;;5034474;28;20401;-88
2024/01/04 07:13:09;;;;;;;;;;;5.80;99.90;;;;;;5031209;28;19955;-88
2024/01/04 07:15:34;;;;;;;;;;;5.80;99.90;;;;;;5032886;28;20459;-89
2024/01/04 07:18:00;;;;;;;;;;;5.90;99.90;;;;;;5027166;28;19921;-89
2024/01/04 07:20:27;;;;;;;;;;;5.80;99.90;;;;;;5030852;28;19976;-89
2024/01/04 07:22:53;;;;;;;;;;;5.80;99.90;;;;;;5032970;28;20018;-90
2024/01/04 07:25:19;;;;;;;;;;;5.80;99.90;;;;;;5035741;28;19934;-89
2024/01/04 07:27:44;;;;;;;;;;;5.80;99.90;;;;;;5039009;28;19951;-87
2024/01/04 07:30:10;;;;;;;;;;;5.80;99.90;;;;;;5025415;28;20357;-88
2024/01/04 07:32:38;;;;;;;;;;;5.80;99.90;;;;;;5030613;28;20424;-87
2024/01/04 07:35:05;;;;;;;;;;;5.80;99.90;;;;;;5028491;28;19936;-88
2024/01/04 07:37:31;;;;;;;;;;;5.70;99.90;;;;;;5034295;28;19920;-91
2024/01/04 07:39:57;;;;;;;;;;;5.70;99.90;;;;;;5040423;28;19920;-89
2024/01/04 07:42:25;;;;;;;;;;;5.70;99.90;;;;;;5041386;28;19969;-93
2024/01/04 07:44:50;;;;;;;;;;;5.70;99.90;;;;;;5048302;28;19957;-93
2024/01/04 07:47:16;;;;;;;;;;;5.60;99.90;;;;;;5044152;28;19937;-89
2024/01/04 07:49:45;;;;;;;;;;;5.60;99.90;;;;;;5034212;28;20028;-92
2024/01/04 07:52:10;;;;;;;;;;;5.60;99.90;;;;;;5033528;28;19928;-93
2024/01/04 07:54:38;;;;;;;;;;;5.60;99.90;;;;;;5032990;28;19951;-89
2024/01/04 07:57:04;;;;;;;;;;;5.60;99.90;;;;;;5103536;22;19940;-88
2024/01/04 07:59:30;;;;;;;;;;;5.60;99.90;;;;;;5020636;28;19928;-90
2024/01/04 08:01:55;;;;;;;;;;;5.60;99.90;;;;;;5013714;28;20014;-89
2024/01/04 08:04:21;;;;;;;;;;;5.60;99.90;;;;;;5016428;28;19924;-90
2024/01/04 08:06:50;;;;;;;;;;;5.60;99.90;;;;;;5014184;28;20052;-90
2024/01/04 08:09:42;;;;;;;;;;;5.60;99.90;;;;;;5023992;28;19956;-92
2024/01/04 08:12:12;;;;;;;;;;;5.60;99.90;;;;;;5018590;28;19968;-92
2024/01/04 08:14:37;;;;;;;;;;;5.50;99.90;;;;;;5019978;28;19950;-91
2024/01/04 08:17:03;;;;;;;;;;;5.40;99.90;;;;;;5010545;28;20588;-90
2024/01/04 08:19:30;;;;;;;;;;;5.50;99.90;;;;;;5014775;28;19921;-91
2024/01/04 08:21:56;;;;;;;;;;;5.50;99.90;;;;;;5019684;28;19936;-92
2024/01/04 08:24:22;;;;;;;;;;;5.60;99.90;;;;;;5021294;28;19934;-91
2024/01/04 08:26:57;;;;;;;;;;;5.70;99.90;;;;;;5014351;22;19964;-92
2024/01/04 08:29:23;;;;;;;;;;;5.70;99.90;;;;;;5010839;28;19921;-92
2024/01/04 08:31:50;;;;;;;;;;;5.70;99.90;;;;;;5003227;28;19935;-89
2024/01/04 08:34:15;;;;;;;;;;;5.80;99.90;;;;;;4996156;28;19942;-90
2024/01/04 08:36:41;;;;;;;;;;;5.70;99.90;;;;;;4997866;28;19985;-92
2024/01/04 08:39:07;;;;;;;;;;;5.70;99.90;;;;;;4996679;28;19939;-90
2024/01/04 08:41:32;;;;;;;;;;;5.80;99.90;;;;;;4998527;28;20492;-92
2024/01/04 09:28:02;;;;;;;;;;;7.70;99.90;;;;;;5046335;22;20109;-79
2024/01/04 09:30:29;;;;;;;;;;;9.20;99.90;;;;;;5012735;28;19937;-79
2024/01/04 09:32:54;;;;;;;;;;;10.00;99.90;;;;;;5016960;28;19981;-79
2024/01/04 09:35:22;;;;;;;;;;;10.20;99.90;;;;;;5013363;28;20119;-78
2024/01/04 09:37:50;;;;;;;;;;;10.00;99.90;;;;;;5013850;28;19936;-78
2024/01/04 09:40:15;;;;;;;;;;;10.10;99.90;;;;;;5014058;28;20021;-82
2024/01/04 09:42:41;;;;;;;;;;;10.10;99.90;;;;;;5004812;28;19913;-80
2024/01/04 09:45:08;;;;;;;;;;;10.50;99.90;;;;;;4994696;28;19945;-81
2024/01/04 09:47:35;;;;;;;;;;;11.10;95.00;;;;;;5009526;28;20447;-82
2024/01/04 09:50:01;;;;;;;;;;;11.70;91.30;;;;;;5027120;28;20023;-79
2024/01/04 09:52:27;;;;;;;;;;;11.90;88.60;;;;;;5036139;28;19917;-80
2024/01/04 09:54:55;;;;;;;;;;;11.50;88.20;;;;;;5040289;28;20360;-81
2024/01/04 09:57:21;;;;;;;;;;;11.40;92.60;;;;;;5033647;28;20631;-79
2024/01/04 09:59:47;;;;;;;;;;;11.40;93.10;;;;;;5020298;28;20668;-78
2024/01/04 10:02:14;;;;;;;;;;;11.50;92.00;;;;;;5014562;28;20343;-79
2024/01/04 10:04:41;;;;;;;;;;;11.60;90.20;;;;;;5013205;28;19977;-79
2024/01/04 10:07:07;;;;;;;;;;;11.60;91.00;;;;;;5008185;28;20404;-80
2024/01/04 10:09:53;;;;;;;;;;;11.40;90.30;;;;;;5010799;28;20392;-79
2024/01/04 10:12:18;;;;;;;;;;;10.90;93.20;;;;;;5009620;28;19986;-78
2024/01/04 10:14:44;;;;;;;;;;;10.70;96.20;;;;;;5011923;28;20702;-80
2024/01/04 10:17:10;;;;;;;;;;;10.40;99.90;;;;;;5004035;28;20439;-79
2024/01/04 10:19:36;;;;;;;;;;;10.00;99.90;;;;;;5006296;28;20046;-81
2024/01/04 10:22:02;;;;;;;;;;;9.70;99.90;;;;;;5013271;28;19987;-79
2024/01/04 10:24:28;;;;;;;;;;;9.70;99.90;;;;;;5018482;28;19929;-80
2024/01/04 10:26:57;;;;;;;;;;;9.90;99.90;;;;;;5013455;28;19927;-85
2024/01/04 10:29:26;;;;;;;;;;;10.20;99.90;;;;;;5016518;28;19937;-80
2024/01/04 10:32:10;;;;;;;;;;;10.20;99.90;;;;;;5015277;28;19926;-81
2024/01/04 10:34:36;;;;;;;;;;;10.50;99.90;;;;;;5008471;28;19967;-79
2024/01/04 10:37:12;;;;;;;;;;;10.60;99.90;;;;;;5018189;28;19930;-80
2024/01/04 10:39:38;;;;;;;;;;;10.60;99.90;;;;;;5018205;28;19945;-80
2024/01/04 10:42:05;;;;;;;;;;;10.40;99.90;;;;;;5033088;28;19930;-81
2024/01/04 10:44:34;;;;;;;;;;;10.20;99.90;;;;;;5040046;28;20782;-82
2024/01/04 10:47:01;;;;;;;;;;;10.40;99.90;;;;;;5032365;28;19971;-84
2024/01/04 10:49:27;;;;;;;;;;;10.50;99.90;;;;;;5015212;28;19909;-82
2024/01/04 10:51:53;;;;;;;;;;;10.50;99.90;;;;;;5008757;28;20438;-81
2024/01/04 10:54:21;;;;;;;;;;;10.40;99.90;;;;;;5009434;28;20486;-82
2024/01/04 10:56:46;;;;;;;;;;;10.10;99.90;;;;;;5015149;28;19952;-82
2024/01/04 10:59:12;;;;;;;;;;;10.00;99.90;;;;;;5016050;28;21303;-83
2024/01/04 11:01:40;;;;;;;;;;;9.90;99.90;;;;;;5016645;28;20447;-82
2024/01/04 11:04:06;;;;;;;;;;;9.70;99.90;;;;;;5012810;28;20361;-83
2024/01/04 11:06:39;;;;;;;;;;;9.60;99.90;;;;;;5015709;28;19920;-81
2024/01/04 11:09:05;;;;;;;;;;;9.70;99.90;;;;;;5017553;28;19937;-84
2024/01/04 11:11:31;;;;;;;;;;;9.60;99.90;;;;;;5014142;28;19942;-82
2024/01/04 11:13:57;;;;;;;;;;;9.60;99.90;;;;;;5014431;28;20044;-85
2024/01/04 11:16:30;;;;;;;;;;;9.50;99.90;;;;;;5014051;28;19954;-80
2024/01/04 11:19:02;;;;;;;;;;;9.40;99.90;;;;;;5010661;28;19913;-81
2024/01/04 11:21:36;;;;;;;;;;;9.40;99.90;;;;;;5012062;28;21361;-80
2024/01/04 11:24:05;;;;;;;;;;;9.30;99.90;;;;;;5009981;28;19932;-81
2024/01/04 11:26:51;;;;;;;;;;;9.30;99.90;;;;;;5015369;28;19940;-81
2024/01/04 11:29:17;;;;;;;;;;;9.40;99.90;;;;;;5016008;28;20306;-83
2024/01/04 11:31:43;;;;;;;;;;;9.40;99.90;;;;;;5010406;28;20034;-80
2024/01/04 11:34:09;;;;;;;;;;;9.50;99.90;;;;;;5013269;28;19961;-82
2024/01/04 11:36:35;;;;;;;;;;;9.50;99.90;;;;;;5011287;28;20405;-82
2024/01/04 11:39:00;;;;;;;;;;;9.50;99.90;;;;;;5008808;28;19984;-83
2024/01/04 11:41:41;;;;;;;;;;;9.60;99.90;;;;;;5006863;28;20356;-81
2024/01/04 11:44:14;;;;;;;;;;;9.60;99.90;;;;;;5006327;28;19932;-81
2024/01/04 11:46:41;;;;;;;;;;;9.60;99.90;;;;;;5010881;28;19939;-83
2024/01/04 11:49:06;;;;;;;;;;;9.60;99.90;;;;;;5014227;28;19909;-80
2024/01/04 11:51:34;;;;;;;;;;;9.60;99.90;;;;;;5023365;28;19935;-80
2024/01/04 11:54:00;;;;;;;;;;;9.70;99.90;;;;;;5030068;28;19948;-79
2024/01/04 11:56:26;;;;;;;;;;;9.80;99.90;;;;;;5026298;28;19940;-80
2024/01/04 11:58:51;;;;;;;;;;;9.70;99.90;;;;;;5023057;28;19917;-79
2024/01/04 12:01:24;;;;;;;;;;;9.80;99.90;;;;;;5023827;28;19927;-81
2024/01/04 12:03:52;;;;;;;;;;;9.90;99.90;;;;;;5017671;28;19928;-78
2024/01/04 12:06:20;;;;;;;;;;;10.00;99.90;;;;;;5015479;28;19931;-79
2024/01/04 12:08:45;;;;;;;;;;;10.00;99.90;;;;;;5018578;28;19927;-77
2024/01/04 12:11:11;;;;;;;;;;;9.90;99.90;;;;;;5020478;28;19963;-80
2024/01/04 12:13:36;;;;;;;;;;;9.90;99.90;;;;;;5016691;28;19954;-79
2024/01/04 12:16:03;;;;;;;;;;;9.90;99.90;;;;;;5016121;28;19922;-79
2024/01/04 12:18:31;;;;;;;;;;;9.90;99.90;;;;;;5017642;28;19964;-79
2024/01/04 12:20:59;;;;;;;;;;;9.80;99.90;;;;;;5016583;28;19971;-78
2024/01/04 12:23:25;;;;;;;;;;;9.80;99.90;;;;;;5019711;28;19965;-79
2024/01/04 12:25:51;;;;;;;;;;;9.80;99.90;;;;;;5019126;28;19940;-80
2024/01/04 12:28:17;;;;;;;;;;;9.90;99.90;;;;;;5020128;28;19959;-80
2024/01/04 12:30:43;;;;;;;;;;;9.90;99.90;;;;;;5019540;28;19941;-79
2024/01/04 12:33:09;;;;;;;;;;;9.80;99.90;;;;;;5014183;28;19919;-79
2024/01/04 12:35:35;;;;;;;;;;;9.80;99.90;;;;;;5013589;28;20079;-79
2024/01/04 12:38:01;;;;;;;;;;;9.80;99.90;;;;;;5017507;28;20112;-78
2024/01/04 12:40:27;;;;;;;;;;;9.90;99.90;;;;;;5025007;28;19943;-79
2024/01/04 12:42:52;;;;;;;;;;;9.90;99.90;;;;;;5027926;28;19970;-80
2024/01/04 12:45:18;;;;;;;;;;;9.90;99.90;;;;;;5024119;28;20054;-79
2024/01/04 12:47:43;;;;;;;;;;;10.00;99.90;;;;;;5019824;28;20450;-79
2024/01/04 12:50:10;;;;;;;;;;;10.10;99.90;;;;;;5014898;28;19938;-79
2024/01/04 12:52:38;;;;;;;;;;;10.30;99.90;;;;;;5016778;28;19926;-76
2024/01/04 12:55:04;;;;;;;;;;;10.40;99.90;;;;;;5010975;28;19939;-84
2024/01/04 12:57:29;;;;;;;;;;;10.30;99.90;;;;;;5020596;28;19924;-83
2024/01/04 12:59:55;;;;;;;;;;;10.20;99.90;;;;;;5020462;28;19927;-81
2024/01/04 13:02:21;;;;;;;;;;;10.20;99.90;;;;;;5021855;28;20139;-82
2024/01/04 13:04:47;;;;;;;;;;;10.30;99.90;;;;;;5020495;28;19947;-84
2024/01/04 13:07:12;;;;;;;;;;;10.30;99.90;;;;;;5020158;28;19980;-83
2024/01/04 13:09:38;;;;;;;;;;;10.40;99.90;;;;;;5025981;28;19967;-83
2024/01/04 13:12:04;;;;;;;;;;;10.40;99.90;;;;;;5021172;28;19927;-84
2024/01/04 13:14:30;;;;;;;;;;;10.30;99.90;;;;;;5023001;28;19927;-82
2024/01/04 13:16:55;;;;;;;;;;;10.40;99.90;;;;;;5021787;28;19932;-82
2024/01/04 13:19:21;;;;;;;;;;;10.40;99.90;;;;;;5016522;28;19936;-83
2024/01/04 13:21:46;;;;;;;;;;;10.30;99.90;;;;;;5018227;28;19920;-81
2024/01/04 13:24:12;;;;;;;;;;;10.20;99.90;;;;;;5017108;28;19981;-81
2024/01/04 13:26:39;;;;;;;;;;;10.00;99.90;;;;;;5017135;28;19928;-81
2024/01/04 13:29:05;;;;;;;;;;;10.00;99.90;;;;;;5013106;28;19960;-81
2024/01/04 13:31:30;;;;;;;;;;;10.00;99.90;;;;;;5016263;28;22014;-82
2024/01/04 13:33:56;;;;;;;;;;;9.90;99.90;;;;;;5006956;28;19951;-82
2024/01/04 13:36:21;;;;;;;;;;;9.90;99.90;;;;;;5011096;28;19925;-84
2024/01/04 13:38:47;;;;;;;;;;;9.90;99.90;;;;;;5013554;28;19935;-84
2024/01/04 13:41:12;;;;;;;;;;;9.90;99.90;;;;;;5003016;28;19939;-81
2024/01/04 13:43:38;;;;;;;;;;;9.80;99.90;;;;;;5005519;28;20020;-84
2024/01/04 13:46:03;;;;;;;;;;;9.70;99.90;;;;;;5006255;28;20292;-82
2024/01/04 13:48:30;;;;;;;;;;;9.70;99.90;;;;;;5024583;28;19939;-82
2024/01/04 13:50:57;;;;;;;;;;;9.70;99.90;;;;;;5038385;28;19940;-83
2024/01/04 13:53:23;;;;;;;;;;;9.50;99.90;;;;;;5034982;28;20040;-81
2024/01/04 13:55:49;;;;;;;;;;;9.50;99.90;;;;;;5034523;28;19975;-86
2024/01/04 13:58:14;;;;;;;;;;;9.40;99.90;;;;;;5011157;28;19926;-81
2024/01/04 14:00:40;;;;;;;;;;;9.30;99.90;;;;;;5012840;28;20032;-81
2024/01/04 14:03:05;;;;;;;;;;;9.20;99.90;;;;;;5005848;28;19931;-80
2024/01/04 14:05:31;;;;;;;;;;;9.20;99.90;;;;;;5009120;28;19946;-83
2024/01/04 14:07:56;;;;;;;;;;;9.10;99.90;;;;;;5013960;28;21012;-80
2024/01/04 14:10:22;;;;;;;;;;;9.00;99.90;;;;;;5017748;28;19970;-82
2024/01/04 14:12:49;;;;;;;;;;;9.00;99.90;;;;;;5014689;28;20479;-82
2024/01/04 14:15:14;;;;;;;;;;;9.00;99.90;;;;;;5014138;28;20472;-83
2024/01/04 14:17:40;;;;;;;;;;;9.10;99.90;;;;;;5016536;28;19924;-80
2024/01/04 14:20:07;;;;;;;;;;;9.10;99.90;;;;;;5016611;28;19929;-81
2024/01/04 14:22:33;;;;;;;;;;;9.10;99.90;;;;;;5017330;28;20422;-82
2024/01/04 14:24:59;;;;;;;;;;;9.10;99.90;;;;;;5013217;28;20007;-80
2024/01/04 14:27:24;;;;;;;;;;;9.20;99.90;;;;;;5010686;28;19924;-81
2024/01/04 14:29:52;;;;;;;;;;;9.20;99.90;;;;;;5011059;28;19945;-83
2024/01/04 14:32:18;;;;;;;;;;;9.20;99.90;;;;;;5013766;28;19988;-82
2024/01/04 14:34:45;;;;;;;;;;;9.20;99.90;;;;;;5011199;28;19927;-84
2024/01/04 14:37:10;;;;;;;;;;;9.20;99.90;;;;;;5011501;28;19936;-80
2024/01/04 14:39:37;;;;;;;;;;;9.20;99.90;;;;;;5014353;28;19940;-82
2024/01/04 14:42:03;;;;;;;;;;;9.20;99.90;;;;;;5018068;28;19956;-81
2024/01/04 14:44:29;;;;;;;;;;;9.20;99.90;;;;;;5015489;28;20411;-81
2024/01/04 14:46:55;;;;;;;;;;;9.20;99.90;;;;;;5014363;28;19996;-82
2024/01/04 14:49:21;;;;;;;;;;;9.20;99.90;;;;;;5017492;28;19922;-78
2024/01/04 14:51:46;;;;;;;;;;;9.20;99.90;;;;;;5019195;28;19940;-81
2024/01/04 14:54:12;;;;;;;;;;;9.10;99.90;;;;;;5012464;28;19944;-80
2024/01/04 14:56:37;;;;;;;;;;;9.20;99.90;;;;;;5016420;28;20453;-81
2024/01/04 14:59:04;;;;;;;;;;;9.10;99.90;;;;;;5010443;28;19954;-81
2024/01/04 15:01:31;;;;;;;;;;;9.00;99.90;;;;;;5001180;28;20019;-80
2024/01/04 15:03:56;;;;;;;;;;;9.00;99.90;;;;;;4983181;28;19994;-80
2024/01/04 15:06:22;;;;;;;;;;;9.10;99.90;;;;;;5013787;28;19982;-79